Time;durP1;ratioP1;P1;durP2;ratioP2;P2;SDS_P1;SDS_P2;PMS_P1;PMS_P2;Temp;Humidity;BMP_temperature;BMP_pressure;BME280_temperature;BME280_humidity;BME280_pressure;Samples;Min_cycle;Max_cycle;Signal;HPM_P1;HPM_P2
2024/01/26 00:00:11;;;;;;;0.70;0.70;;;;;;;1.73;100.00;98578.41;5099153;28;20135;-67
2024/01/26 00:02:38;;;;;;;0.70;0.70;;;;;;;1.77;100.00;98580.16;5098618;28;20109;-68
2024/01/26 00:05:05;;;;;;;1.17;0.70;;;;;;;1.74;100.00;98593.53;5098868;28;20060;-66
2024/01/26 00:07:31;;;;;;;0.73;0.73;;;;;;;1.75;100.00;98597.81;5098820;28;20226;-66
2024/01/26 00:09:57;;;;;;;0.80;0.80;;;;;;;1.85;100.00;98611.78;5098953;28;20086;-67
2024/01/26 00:12:24;;;;;;;0.73;0.73;;;;;;;1.83;100.00;98622.13;5098876;28;20196;-66
2024/01/26 00:14:50;;;;;;;0.70;0.70;;;;;;;1.82;100.00;98630.56;5098661;28;20084;-67
2024/01/26 00:17:16;;;;;;;0.80;0.70;;;;;;;1.73;100.00;98633.25;5098642;28;20168;-66
2024/01/26 00:19:43;;;;;;;0.77;0.77;;;;;;;1.72;100.00;98634.38;5098516;28;20135;-66
2024/01/26 00:22:09;;;;;;;0.88;0.88;;;;;;;1.73;100.00;98644.06;5098785;28;20134;-67
2024/01/26 00:24:35;;;;;;;0.80;0.80;;;;;;;1.68;100.00;98641.53;5098423;28;20366;-65
2024/01/26 00:27:02;;;;;;;0.68;0.68;;;;;;;1.74;100.00;98644.88;5098719;28;20316;-66
2024/01/26 00:29:28;;;;;;;1.05;0.70;;;;;;;1.69;100.00;98653.13;5098289;28;20504;-65
2024/01/26 00:31:54;;;;;;;0.60;0.60;;;;;;;1.81;100.00;98659.50;5098655;28;20425;-66
2024/01/26 00:34:21;;;;;;;0.80;0.80;;;;;;;1.74;100.00;98664.59;5098443;28;20130;-67
2024/01/26 00:36:47;;;;;;;0.82;0.82;;;;;;;1.62;100.00;98667.13;5098363;28;20137;-65
2024/01/26 00:39:14;;;;;;;0.70;0.70;;;;;;;1.64;100.00;98660.28;5098235;28;20135;-67
2024/01/26 00:41:40;;;;;;;0.82;0.82;;;;;;;1.53;100.00;98674.41;5098167;28;20134;-66
2024/01/26 00:44:06;;;;;;;0.80;0.80;;;;;;;1.68;100.00;98675.88;5098385;28;20082;-66
2024/01/26 00:46:32;;;;;;;0.77;0.77;;;;;;;1.64;100.00;98681.91;5098036;28;20143;-66
2024/01/26 00:48:58;;;;;;;1.48;1.35;;;;;;;1.63;100.00;98684.91;5098258;28;20417;-66
2024/01/26 00:51:24;;;;;;;0.93;0.88;;;;;;;1.62;100.00;98692.22;5097077;28;20166;-67
2024/01/26 00:53:51;;;;;;;0.88;0.88;;;;;;;1.79;100.00;98696.06;5098352;28;20312;-66
2024/01/26 00:56:18;;;;;;;1.08;1.08;;;;;;;1.81;100.00;98704.66;5097924;28;20052;-64
2024/01/26 00:58:44;;;;;;;0.60;0.60;;;;;;;1.87;100.00;98704.16;5098276;28;20158;-66
2024/01/26 01:01:10;;;;;;;3.17;0.70;;;;;;;1.76;100.00;98721.78;5097690;28;20044;-65
2024/01/26 01:03:37;;;;;;;0.90;0.90;;;;;;;1.89;100.00;98718.16;5097949;28;20133;-66
2024/01/26 01:06:03;;;;;;;0.80;0.80;;;;;;;1.86;100.00;98721.47;5097671;28;20048;-67
2024/01/26 01:08:29;;;;;;;0.95;0.95;;;;;;;1.83;100.00;98722.16;5097647;28;20428;-65
2024/01/26 01:10:56;;;;;;;0.80;0.80;;;;;;;1.72;100.00;98722.75;5097585;28;20344;-67
2024/01/26 01:13:22;;;;;;;0.90;0.90;;;;;;;1.73;100.00;98730.53;5097631;28;20052;-65
2024/01/26 01:15:48;;;;;;;0.93;0.85;;;;;;;1.65;100.00;98736.75;5097900;28;20321;-67
2024/01/26 01:18:15;;;;;;;0.80;0.80;;;;;;;1.67;100.00;98739.94;5097633;28;20189;-66
2024/01/26 01:20:41;;;;;;;0.90;0.90;;;;;;;1.67;100.00;98742.63;5098047;28;20052;-66
2024/01/26 01:23:07;;;;;;;0.90;0.90;;;;;;;1.75;100.00;98755.34;5097489;28;20390;-65
2024/01/26 01:25:34;;;;;;;0.90;0.90;;;;;;;1.81;100.00;98748.69;5097897;28;20052;-68
2024/01/26 01:28:01;;;;;;;1.45;0.80;;;;;;;1.79;100.00;98750.91;5097245;28;20089;-65
2024/01/26 01:30:27;;;;;;;1.50;0.90;;;;;;;1.85;100.00;98757.75;5097726;28;20138;-66
2024/01/26 01:32:54;;;;;;;0.88;0.88;;;;;;;1.86;100.00;98759.31;5097522;28;20052;-66
2024/01/26 01:35:21;;;;;;;0.75;0.75;;;;;;;1.81;100.00;98756.78;5097475;28;20366;-67
2024/01/26 01:37:47;;;;;;;0.95;0.95;;;;;;;1.75;100.00;98762.66;5097465;28;20056;-66
2024/01/26 01:40:13;;;;;;;1.10;1.10;;;;;;;1.81;100.00;98770.31;5097317;28;20090;-66
2024/01/26 01:42:41;;;;;;;0.90;0.90;;;;;;;1.74;100.00;98763.78;5097484;28;20138;-66
2024/01/26 01:45:13;;;;;;;1.10;1.10;;;;;;;1.79;100.00;98766.31;5097104;28;20146;-66
2024/01/26 01:47:39;;;;;;;1.75;1.13;;;;;;;1.86;100.00;98766.63;5097261;28;20060;-66
2024/01/26 01:50:07;;;;;;;0.90;0.90;;;;;;;1.87;100.00;98769.03;5096948;28;20083;-66
2024/01/26 01:52:34;;;;;;;0.80;0.80;;;;;;;1.81;100.00;98770.31;5097481;28;20113;-66
2024/01/26 01:55:01;;;;;;;0.95;0.88;;;;;;;1.75;100.00;98773.47;5096940;28;20139;-67
2024/01/26 01:57:30;;;;;;;0.73;0.70;;;;;;;1.72;100.00;98787.63;5097271;28;20056;-66
2024/01/26 01:59:56;;;;;;;0.90;0.90;;;;;;;1.83;100.00;98789.72;5097164;28;20377;-67
2024/01/26 02:02:24;;;;;;;0.80;0.80;;;;;;;1.53;100.00;98796.00;5096749;28;20052;-66
2024/01/26 02:04:50;;;;;;;0.70;0.70;;;;;;;1.66;100.00;98805.88;5097106;28;20044;-66
2024/01/26 02:07:16;;;;;;;0.80;0.80;;;;;;;1.65;100.00;98799.69;5096670;28;20313;-67
2024/01/26 02:09:42;;;;;;;0.90;0.90;;;;;;;1.60;100.00;98809.84;5097075;28;20412;-65
2024/01/26 02:12:08;;;;;;;0.77;0.77;;;;;;;1.61;100.00;98809.53;5096811;28;20138;-67
2024/01/26 02:14:35;;;;;;;0.95;0.95;;;;;;;1.70;100.00;98814.97;5097087;28;20114;-66
2024/01/26 02:17:02;;;;;;;2.05;0.80;;;;;;;1.61;100.00;98814.16;5096690;28;20336;-66
2024/01/26 02:19:32;;;;;;;0.80;0.80;;;;;;;1.63;100.00;98825.41;5096434;28;20420;-66
2024/01/26 02:21:58;;;;;;;0.70;0.70;;;;;;;1.59;100.00;98832.56;5096552;28;20152;-67
2024/01/26 02:24:25;;;;;;;1.77;0.77;;;;;;;1.59;100.00;98830.66;5096954;28;20142;-65
2024/01/26 02:26:52;;;;;;;0.70;0.70;;;;;;;1.71;100.00;98837.38;5096639;28;20052;-67
2024/01/26 02:29:18;;;;;;;0.85;0.85;;;;;;;1.75;100.00;98839.13;5096707;28;20058;-67
2024/01/26 02:31:44;;;;;;;0.73;0.73;;;;;;;1.49;100.00;98840.94;5096781;28;20048;-66
2024/01/26 02:34:12;;;;;;;0.82;0.80;;;;;;;1.53;100.00;98850.03;5096554;28;20048;-67
2024/01/26 02:36:39;;;;;;;0.80;0.80;;;;;;;1.57;100.00;98848.31;5096730;28;20363;-66
2024/01/26 02:39:05;;;;;;;0.90;0.90;;;;;;;1.54;100.00;98857.84;5096264;28;20048;-67
2024/01/26 02:41:32;;;;;;;1.10;1.10;;;;;;;1.57;100.00;98868.00;5096651;28;20131;-67
2024/01/26 02:43:59;;;;;;;0.90;0.90;;;;;;;1.56;100.00;98855.59;5096398;28;20063;-65
2024/01/26 02:46:25;;;;;;;0.90;0.90;;;;;;;1.69;100.00;98858.50;5096550;28;20073;-66
2024/01/26 02:48:51;;;;;;;0.77;0.77;;;;;;;1.53;100.00;98868.94;5096142;28;20056;-65
2024/01/26 02:51:17;;;;;;;0.80;0.80;;;;;;;1.59;100.00;98881.19;5096501;28;20135;-67
2024/01/26 02:53:43;;;;;;;0.90;0.90;;;;;;;1.48;100.00;98877.97;5096066;28;20052;-66
2024/01/26 02:56:09;;;;;;;2.65;1.10;;;;;;;1.45;100.00;98889.41;5096109;28;20441;-65
2024/01/26 02:58:37;;;;;;;0.82;0.82;;;;;;;1.62;100.00;98889.47;5096395;28;20142;-66
2024/01/26 03:01:03;;;;;;;1.35;1.08;;;;;;;1.74;100.00;98899.72;5096275;28;20125;-65
2024/01/26 03:03:30;;;;;;;1.40;1.10;;;;;;;1.61;100.00;98896.00;5096125;28;20396;-66
2024/01/26 03:05:56;;;;;;;0.90;0.88;;;;;;;1.67;100.00;98893.13;5096155;28;20105;-66
2024/01/26 03:08:22;;;;;;;0.95;0.95;;;;;;;1.64;100.00;98895.38;5096228;28;20048;-67
2024/01/26 03:10:50;;;;;;;0.95;0.95;;;;;;;1.53;100.00;98904.06;5096040;28;20048;-66
2024/01/26 03:13:17;;;;;;;1.90;0.90;;;;;;;1.55;100.00;98901.84;5096249;28;20138;-66
2024/01/26 03:15:49;;;;;;;0.88;0.88;;;;;;;1.41;100.00;98901.94;5098434;28;20051;-66
2024/01/26 03:18:16;;;;;;;0.90;0.90;;;;;;;1.60;100.00;98909.81;5099902;28;20058;-65
2024/01/26 03:20:43;;;;;;;0.90;0.90;;;;;;;1.56;100.00;98916.94;5099257;28;20078;-67
2024/01/26 03:23:09;;;;;;;1.70;0.90;;;;;;;1.65;100.00;98920.47;5099563;28;20139;-65
2024/01/26 03:25:35;;;;;;;3.50;1.13;;;;;;;1.69;100.00;98918.75;5099633;28;20142;-67
2024/01/26 03:28:01;;;;;;;4.45;0.82;;;;;;;1.63;100.00;98930.81;5099373;28;20055;-66
2024/01/26 03:30:27;;;;;;;1.23;1.10;;;;;;;1.73;100.00;98927.81;5099617;28;20043;-67
2024/01/26 03:32:54;;;;;;;1.00;1.00;;;;;;;1.61;100.00;98927.63;5099200;28;20423;-65
2024/01/26 03:35:20;;;;;;;1.80;0.88;;;;;;;1.52;100.00;98937.59;5099569;28;20421;-67
2024/01/26 03:37:47;;;;;;;0.80;0.80;;;;;;;1.65;100.00;98939.41;5099214;28;20112;-67
2024/01/26 03:40:13;;;;;;;1.00;1.00;;;;;;;1.62;100.00;98940.03;5099452;28;20048;-65
2024/01/26 03:42:40;;;;;;;0.80;0.80;;;;;;;1.61;100.00;98949.25;5099111;28;20102;-64
2024/01/26 03:45:07;;;;;;;0.90;0.90;;;;;;;1.63;100.00;98955.94;5099374;28;20400;-66
2024/01/26 03:47:33;;;;;;;1.10;1.10;;;;;;;1.72;100.00;98947.84;5098893;28;20464;-65
2024/01/26 03:50:00;;;;;;;3.22;1.15;;;;;;;1.65;100.00;98951.00;5099294;28;20058;-67
2024/01/26 03:52:26;;;;;;;1.00;1.00;;;;;;;1.54;100.00;98957.78;5099357;28;20357;-67
2024/01/26 03:54:53;;;;;;;1.00;1.00;;;;;;;1.53;100.00;98958.09;5098736;28;20435;-65
2024/01/26 03:57:19;;;;;;;1.10;1.00;;;;;;;1.43;100.00;98969.94;5098828;28;20138;-67
2024/01/26 03:59:46;;;;;;;1.20;1.10;;;;;;;1.55;100.00;98977.50;5098671;28;20431;-65
2024/01/26 04:02:12;;;;;;;1.45;1.10;;;;;;;1.53;100.00;98977.00;5098865;28;20405;-66
2024/01/26 04:04:38;;;;;;;1.45;1.35;;;;;;;1.43;100.00;98986.16;5098757;28;20055;-66
2024/01/26 04:07:05;;;;;;;1.13;1.02;;;;;;;1.56;100.00;98989.91;5098932;28;20143;-67
2024/01/26 04:09:31;;;;;;;1.30;1.10;;;;;;;1.58;100.00;98996.59;5098692;28;20130;-65
2024/01/26 04:11:58;;;;;;;1.20;1.15;;;;;;;1.53;100.00;99001.31;5099054;28;20052;-66
2024/01/26 04:14:24;;;;;;;1.23;1.13;;;;;;;1.63;100.00;99007.28;5098597;28;20135;-67
2024/01/26 04:16:50;;;;;;;1.38;1.27;;;;;;;1.54;100.00;99002.94;5099010;28;20139;-65
2024/01/26 04:19:16;;;;;;;1.45;1.35;;;;;;;1.36;100.00;99008.19;5098251;28;20073;-66
2024/01/26 04:21:42;;;;;;;1.85;1.60;;;;;;;1.55;100.00;99010.72;5098641;28;20112;-66
2024/01/26 04:24:09;;;;;;;1.73;1.60;;;;;;;1.43;100.00;99018.56;5098340;28;20047;-67
2024/01/26 04:26:35;;;;;;;1.52;1.30;;;;;;;1.60;100.00;99023.28;5098411;28;20083;-66
2024/01/26 04:29:01;;;;;;;1.40;1.30;;;;;;;1.46;100.00;99017.97;5098489;28;20131;-65
2024/01/26 04:31:28;;;;;;;1.88;1.60;;;;;;;1.43;100.00;99018.56;5098324;28;20101;-67
2024/01/26 04:33:54;;;;;;;1.70;1.60;;;;;;;1.60;100.00;99026.00;5098454;28;20059;-65
2024/01/26 04:36:21;;;;;;;1.70;1.60;;;;;;;1.51;100.00;99033.25;5098270;28;20309;-65
2024/01/26 04:38:47;;;;;;;1.15;1.10;;;;;;;1.70;100.00;99033.88;5098573;28;20139;-67
2024/01/26 04:41:14;;;;;;;1.38;1.27;;;;;;;1.56;100.00;99047.44;5098014;28;20443;-65
2024/01/26 04:43:40;;;;;;;1.55;1.45;;;;;;;1.50;100.00;99051.38;5098313;28;20073;-66
2024/01/26 04:46:07;;;;;;;1.70;1.60;;;;;;;1.54;100.00;99054.25;5097957;28;20052;-66
2024/01/26 04:48:33;;;;;;;2.22;1.75;;;;;;;1.67;100.00;99053.41;5098315;28;20051;-67
2024/01/26 04:50:59;;;;;;;2.28;1.65;;;;;;;1.67;100.00;99064.22;5097848;28;20475;-65
2024/01/26 04:53:26;;;;;;;3.70;1.80;;;;;;;1.65;100.00;99061.78;5097829;28;20413;-67
2024/01/26 04:55:53;;;;;;;1.80;1.70;;;;;;;1.84;100.00;99068.91;5098119;28;20048;-66
2024/01/26 04:58:20;;;;;;;1.08;1.08;;;;;;;1.69;100.00;99070.09;5097883;28;20067;-67
2024/01/26 05:00:47;;;;;;;1.67;1.58;;;;;;;1.56;100.00;99071.75;5098088;28;20048;-67
2024/01/26 05:03:13;;;;;;;1.63;1.52;;;;;;;1.74;100.00;99077.28;5097773;28;20135;-65
2024/01/26 05:05:40;;;;;;;3.35;2.10;;;;;;;1.81;100.00;99083.06;5098018;28;20074;-67
2024/01/26 05:08:06;;;;;;;1.73;1.63;;;;;;;1.87;100.00;99081.81;5097466;28;20055;-65
2024/01/26 05:10:32;;;;;;;1.80;1.48;;;;;;;1.84;100.00;99071.63;5098036;28;20354;-66
2024/01/26 05:12:59;;;;;;;2.00;1.90;;;;;;;1.87;100.00;99061.00;5097385;28;20062;-67
2024/01/26 05:15:26;;;;;;;1.80;1.70;;;;;;;1.94;100.00;99054.34;5097894;28;20139;-64
2024/01/26 05:17:52;;;;;;;2.38;2.17;;;;;;;2.03;100.00;99060.56;5097327;28;20055;-65
2024/01/26 05:20:18;;;;;;;1.98;1.70;;;;;;;1.93;100.00;99058.13;5097450;28;20146;-66
2024/01/26 05:22:45;;;;;;;1.92;1.70;;;;;;;2.08;100.00;99063.94;5097620;28;20111;-66
2024/01/26 05:25:11;;;;;;;2.47;1.80;;;;;;;2.22;100.00;99054.94;5097435;28;20062;-67
2024/01/26 05:27:40;;;;;;;2.00;1.75;;;;;;;2.08;100.00;99057.75;5097556;28;20058;-66
2024/01/26 05:30:07;;;;;;;1.92;1.83;;;;;;;2.05;100.00;99042.16;5097229;28;20052;-66
2024/01/26 05:32:34;;;;;;;2.40;2.20;;;;;;;2.25;100.00;99052.41;5097464;28;20105;-67
2024/01/26 05:35:00;;;;;;;1.80;1.70;;;;;;;2.10;100.00;99042.81;5096969;28;20048;-66
2024/01/26 05:37:27;;;;;;;1.95;1.85;;;;;;;2.00;100.00;99048.50;5096548;28;20427;-64
2024/01/26 05:39:53;;;;;;;2.03;1.88;;;;;;;1.99;100.00;99063.09;5096883;28;20430;-66
2024/01/26 05:42:19;;;;;;;2.17;1.80;;;;;;;1.99;100.00;99073.91;5097454;28;20480;-64
2024/01/26 05:44:45;;;;;;;4.80;2.10;;;;;;;1.88;100.00;99084.19;5096730;28;20131;-66
2024/01/26 05:47:11;;;;;;;1.95;1.85;;;;;;;1.81;100.00;99107.38;5096859;28;20134;-67
2024/01/26 05:49:38;;;;;;;2.63;1.98;;;;;;;2.00;100.00;99120.69;5097029;28;20063;-67
2024/01/26 05:52:05;;;;;;;2.10;1.92;;;;;;;1.93;100.00;99123.81;5096809;28;20143;-65
2024/01/26 05:54:31;;;;;;;3.25;2.00;;;;;;;1.98;100.00;99128.31;5096930;28;20144;-64
2024/01/26 05:56:57;;;;;;;2.30;2.10;;;;;;;2.05;100.00;99131.38;5096927;28;20135;-66
2024/01/26 05:59:26;;;;;;;2.00;1.90;;;;;;;2.03;100.00;99139.00;5097148;28;20189;-67
2024/01/26 06:01:52;;;;;;;3.35;2.50;;;;;;;1.93;100.00;99134.63;5097256;28;20189;-66
2024/01/26 06:04:19;;;;;;;2.28;1.83;;;;;;;1.89;100.00;99137.16;5097102;28;20048;-69
2024/01/26 06:06:45;;;;;;;1.92;1.83;;;;;;;1.94;100.00;99141.66;5096417;28;20492;-65
2024/01/26 06:09:12;;;;;;;2.25;2.05;;;;;;;1.97;100.00;99156.47;5096911;28;20389;-67
2024/01/26 06:11:42;;;;;;;3.33;2.45;;;;;;;2.01;100.00;99154.75;5096446;28;20373;-66
2024/01/26 06:14:08;;;;;;;1.98;1.80;;;;;;;1.93;100.00;99150.84;5096448;28;20534;-66
2024/01/26 06:16:35;;;;;;;2.50;2.30;;;;;;;1.80;100.00;99149.00;5096412;28;20385;-65
2024/01/26 06:19:01;;;;;;;2.45;1.95;;;;;;;1.89;100.00;99166.09;5096483;28;20147;-66
2024/01/26 06:21:27;;;;;;;2.92;2.05;;;;;;;1.88;100.00;99164.50;5096619;28;20189;-66
2024/01/26 06:23:54;;;;;;;2.70;2.47;;;;;;;1.85;100.00;99176.72;5096415;28;20135;-65
2024/01/26 06:26:20;;;;;;;1.90;1.80;;;;;;;1.81;100.00;99181.16;5096360;28;20135;-67
2024/01/26 06:28:47;;;;;;;4.72;2.35;;;;;;;1.91;100.00;99190.13;5095976;28;20062;-65
2024/01/26 06:31:13;;;;;;;2.65;2.45;;;;;;;1.96;100.00;99190.78;5096282;28;20074;-64
2024/01/26 06:33:39;;;;;;;2.40;2.20;;;;;;;1.85;100.00;99184.84;5095905;28;20135;-69
2024/01/26 06:36:05;;;;;;;2.13;1.92;;;;;;;1.81;100.00;99191.19;5096310;28;20083;-66
2024/01/26 06:38:32;;;;;;;4.80;2.90;;;;;;;2.00;100.00;99196.38;5096040;28;20134;-68
2024/01/26 06:40:59;;;;;;;3.72;1.90;;;;;;;1.97;100.00;99189.72;5096600;28;20054;-67
2024/01/26 06:43:25;;;;;;;3.42;2.47;;;;;;;1.88;100.00;99183.44;5096021;28;20517;-72
2024/01/26 06:45:51;;;;;;;2.35;2.15;;;;;;;1.88;100.00;99196.94;5095914;28;20134;-66
2024/01/26 06:48:17;;;;;;;5.35;2.25;;;;;;;2.10;100.00;99193.47;5096181;28;20084;-65
2024/01/26 06:50:44;;;;;;;3.15;2.45;;;;;;;1.95;100.00;99191.13;5098727;28;20052;-69
2024/01/26 06:53:10;;;;;;;5.95;2.13;;;;;;;2.01;100.00;99201.50;5100052;28;20052;-65
2024/01/26 06:55:36;;;;;;;2.58;2.38;;;;;;;2.03;100.00;99204.72;5099572;28;20084;-67
2024/01/26 06:58:03;;;;;;;4.05;2.95;;;;;;;2.18;100.00;99213.56;5099878;28;20052;-64
2024/01/26 07:00:30;;;;;;;5.57;2.67;;;;;;;2.32;100.00;99214.28;5099464;28;20047;-67
2024/01/26 07:02:56;;;;;;;2.75;2.47;;;;;;;2.35;100.00;99206.34;5099760;28;20048;-66
2024/01/26 07:05:22;;;;;;;3.42;2.80;;;;;;;2.36;100.00;99190.91;5099223;28;20466;-66
2024/01/26 07:07:48;;;;;;;3.53;3.22;;;;;;;2.31;100.00;99178.31;5099769;28;20146;-67
2024/01/26 07:10:15;;;;;;;2.60;2.40;;;;;;;2.17;100.00;99165.97;5099223;28;20455;-67
2024/01/26 07:12:41;;;;;;;3.63;3.17;;;;;;;2.32;100.00;99154.75;5099052;28;20135;-68
2024/01/26 07:15:09;;;;;;;4.80;3.42;;;;;;;2.38;100.00;99144.63;5099616;28;20051;-68
2024/01/26 07:17:36;;;;;;;2.70;2.45;;;;;;;2.59;100.00;99122.09;5099399;28;20056;-65
2024/01/26 07:20:03;;;;;;;4.28;2.97;;;;;;;2.62;100.00;99093.59;5099477;28;20419;-66
2024/01/26 07:22:29;;;;;;;8.07;2.90;;;;;;;2.50;100.00;99042.81;5099206;28;20044;-67
2024/01/26 07:24:56;;;;;;;6.07;2.25;;;;;;;2.44;100.00;99024.31;5099510;28;20048;-67
2024/01/26 07:27:23;;;;;;;13.73;3.22;;;;;;;2.25;100.00;99041.59;5098981;28;20135;-64
2024/01/26 07:29:49;;;;;;;7.88;3.22;;;;;;;2.35;100.00;99071.06;5099334;28;20083;-63
2024/01/26 07:32:16;;;;;;;4.43;2.83;;;;;;;2.27;100.00;99085.38;5098900;28;20047;-68
2024/01/26 07:34:42;;;;;;;4.35;2.80;;;;;;;2.27;100.00;99109.72;5099431;28;20381;-68
2024/01/26 07:37:09;;;;;;;7.32;2.95;;;;;;;2.46;100.00;99143.84;5099031;28;20443;-64
2024/01/26 07:39:35;;;;;;;4.15;3.28;;;;;;;2.26;100.00;99151.38;5099392;28;20187;-66
2024/01/26 07:42:01;;;;;;;3.05;2.63;;;;;;;2.31;100.00;99178.31;5098593;28;20158;-64
2024/01/26 07:44:27;;;;;;;8.82;2.92;;;;;;;2.29;100.00;99180.50;5098889;28;20094;-67
2024/01/26 07:46:53;;;;;;;3.17;2.88;;;;;;;2.23;100.00;99184.47;5098407;28;20047;-65
2024/01/26 07:49:20;;;;;;;4.07;3.20;;;;;;;2.33;100.00;99210.44;5098252;28;20094;-65
2024/01/26 07:51:46;;;;;;;4.95;2.85;;;;;;;2.20;100.00;99206.75;5098677;28;20343;-65
2024/01/26 07:54:13;;;;;;;3.10;2.40;;;;;;;2.21;100.00;99216.44;5098583;28;20052;-64
2024/01/26 07:56:39;;;;;;;2.60;2.40;;;;;;;2.11;100.00;99232.91;5098386;28;20066;-64
2024/01/26 07:59:05;;;;;;;4.00;2.92;;;;;;;2.03;100.00;99241.75;5098520;28;20048;-63
2024/01/26 08:01:31;;;;;;;5.38;2.78;;;;;;;2.27;100.00;99252.28;5097485;28;20052;-65
2024/01/26 08:03:57;;;;;;;6.70;3.20;;;;;;;2.22;100.00;99253.19;5098266;28;20094;-64
2024/01/26 08:06:24;;;;;;;2.55;2.35;;;;;;;2.10;100.00;99264.56;5098406;28;20134;-65
2024/01/26 08:08:51;;;;;;;2.90;2.58;;;;;;;2.15;100.00;99260.94;5098200;28;20060;-63
2024/01/26 08:11:18;;;;;;;4.05;2.97;;;;;;;2.12;100.00;99266.97;5097810;28;20367;-64
2024/01/26 08:13:45;;;;;;;3.28;2.58;;;;;;;2.38;100.00;99277.97;5098374;28;20321;-66
2024/01/26 08:16:14;;;;;;;5.78;2.38;;;;;;;2.20;100.00;99271.66;5098052;28;20398;-66
2024/01/26 08:18:41;;;;;;;8.65;3.05;;;;;;;2.24;100.00;99280.75;5098369;28;20063;-66
2024/01/26 08:21:07;;;;;;;3.42;2.70;;;;;;;2.24;100.00;99269.94;5098122;28;20189;-66
2024/01/26 08:23:34;;;;;;;2.33;2.00;;;;;;;2.24;100.00;99272.63;5098621;28;20082;-66
2024/01/26 08:26:01;;;;;;;2.45;2.13;;;;;;;2.35;100.00;99282.09;5098042;28;20484;-66
2024/01/26 08:28:27;;;;;;;2.60;2.20;;;;;;;2.35;100.00;99279.38;5098279;28;20066;-66
2024/01/26 08:30:53;;;;;;;5.13;2.38;;;;;;;2.24;100.00;99278.03;5097854;28;20052;-66
2024/01/26 08:33:19;;;;;;;5.78;2.65;;;;;;;2.35;100.00;99279.38;5098371;28;20412;-66
2024/01/26 08:35:45;;;;;;;3.58;2.38;;;;;;;2.41;100.00;99277.38;5097886;28;20056;-66
2024/01/26 08:38:12;;;;;;;4.13;2.60;;;;;;;2.35;100.00;99276.69;5098104;28;20098;-66
2024/01/26 08:40:38;;;;;;;2.35;2.15;;;;;;;2.31;100.00;99278.41;5098243;28;20079;-66
2024/01/26 08:43:05;;;;;;;4.32;2.45;;;;;;;2.28;100.00;99276.31;5097859;28;20056;-66
2024/01/26 08:45:31;;;;;;;2.17;1.98;;;;;;;2.44;100.00;99268.63;5098040;28;20084;-66
2024/01/26 08:47:57;;;;;;;2.28;2.15;;;;;;;2.48;100.00;99263.41;5097592;28;20066;-66
2024/01/26 08:50:23;;;;;;;4.13;1.95;;;;;;;2.41;100.00;99271.97;5097852;28;20079;-66
2024/01/26 08:52:49;;;;;;;5.18;2.20;;;;;;;2.75;100.00;99259.75;5097904;28;20131;-66
2024/01/26 08:55:16;;;;;;;2.50;1.65;;;;;;;2.48;100.00;99233.63;5098159;28;20134;-66
2024/01/26 08:57:43;;;;;;;2.20;2.00;;;;;;;2.57;100.00;99227.16;5097760;28;20066;-68
2024/01/26 09:00:12;;;;;;;3.35;2.00;;;;;;;2.42;100.00;99203.19;5098026;28;20415;-66
2024/01/26 09:02:39;;;;;;;2.00;1.80;;;;;;;2.45;100.00;99216.09;5097600;28;20093;-66
2024/01/26 09:05:06;;;;;;;1.92;1.70;;;;;;;2.46;100.00;99203.38;5098136;28;20131;-66
2024/01/26 09:07:32;;;;;;;2.15;1.95;;;;;;;2.59;100.00;99213.31;5097518;28;20408;-66
2024/01/26 09:09:58;;;;;;;4.93;2.30;;;;;;;2.41;100.00;99200.81;5097534;28;20087;-66
2024/01/26 09:12:24;;;;;;;1.77;1.67;;;;;;;2.39;100.00;99184.06;5096797;28;20134;-66
2024/01/26 09:14:51;;;;;;;2.22;1.77;;;;;;;2.27;100.00;99169.22;5097427;28;20144;-66
2024/01/26 09:17:17;;;;;;;3.13;1.60;;;;;;;2.39;100.00;99175.97;5097647;28;20109;-66
2024/01/26 09:19:44;;;;;;;2.92;1.92;;;;;;;2.45;100.00;99178.22;5097311;28;20048;-66
2024/01/26 09:22:10;;;;;;;2.25;1.65;;;;;;;2.54;100.00;99170.97;5097739;28;20131;-66
2024/01/26 09:24:36;;;;;;;2.17;1.70;;;;;;;2.42;100.00;99142.88;5097174;28;20048;-66
2024/01/26 09:27:03;;;;;;;1.65;1.55;;;;;;;2.35;100.00;99160.34;5097342;28;20135;-66
2024/01/26 09:29:29;;;;;;;2.05;1.95;;;;;;;2.26;100.00;99158.69;5097196;28;20052;-66
2024/01/26 09:31:56;;;;;;;1.90;1.73;;;;;;;2.29;100.00;99193.25;5097798;28;20305;-66
2024/01/26 09:34:23;;;;;;;1.67;1.58;;;;;;;2.26;100.00;99210.09;5097082;28;20052;-66
2024/01/26 09:36:49;;;;;;;3.50;2.00;;;;;;;2.26;100.00;99234.44;5096990;28;20110;-66
2024/01/26 09:39:15;;;;;;;6.38;2.53;;;;;;;2.36;100.00;99239.59;5096849;28;20427;-66
2024/01/26 09:41:41;;;;;;;3.35;2.40;;;;;;;2.27;100.00;99238.75;5096753;28;20054;-65
2024/01/26 09:44:08;;;;;;;2.28;2.08;;;;;;;2.44;100.00;99246.19;5096980;28;20362;-65
2024/01/26 09:46:34;;;;;;;2.33;1.77;;;;;;;2.45;100.00;99245.06;5097035;28;20192;-69
2024/01/26 09:49:02;;;;;;;1.77;1.67;;;;;;;2.35;100.00;99227.97;5097047;28;20072;-68
2024/01/26 09:51:30;;;;;;;3.58;2.20;;;;;;;2.39;100.00;99228.16;5097199;28;20125;-68
2024/01/26 09:54:00;;;;;;;5.55;2.55;;;;;;;2.34;100.00;99231.81;5097257;28;20138;-65
2024/01/26 09:56:26;;;;;;;3.15;2.40;;;;;;;2.17;100.00;99241.72;5096781;28;20492;-65
2024/01/26 09:58:53;;;;;;;3.97;2.17;;;;;;;2.01;100.00;99257.50;5097223;28;20332;-66
2024/01/26 10:01:22;;;;;;;1.83;1.73;;;;;;;2.01;100.00;99273.72;5096488;28;20348;-65
2024/01/26 10:03:52;;;;;;;3.67;1.92;;;;;;;2.01;100.00;99289.94;5096879;28;20163;-65
2024/01/26 10:06:19;;;;;;;2.95;2.55;;;;;;;1.79;100.00;99302.28;5096544;28;20113;-65
2024/01/26 10:08:45;;;;;;;2.25;2.05;;;;;;;1.93;100.00;99328.50;5096584;28;20101;-66
2024/01/26 10:11:11;;;;;;;2.65;2.10;;;;;;;1.96;100.00;99336.00;5096299;28;20091;-65
2024/01/26 10:13:38;;;;;;;3.13;2.28;;;;;;;1.82;100.00;99342.22;5096294;28;20048;-66
2024/01/26 10:16:06;;;;;;;2.70;2.50;;;;;;;1.72;100.00;99334.34;5096650;28;20395;-65
2024/01/26 10:18:39;;;;;;;2.97;2.22;;;;;;;2.04;100.00;99351.53;5096182;28;20112;-65
2024/01/26 10:21:05;;;;;;;4.88;2.65;;;;;;;1.89;100.00;99353.44;5096725;28;20054;-66
2024/01/26 10:23:32;;;;;;;2.42;2.22;;;;;;;2.07;100.00;99367.16;5096170;28;20079;-64
2024/01/26 10:25:58;;;;;;;4.38;2.20;;;;;;;2.12;100.00;99354.31;5096802;28;20130;-65
2024/01/26 10:28:24;;;;;;;1.85;1.75;;;;;;;2.27;100.00;99353.19;5095864;28;20443;-65
2024/01/26 10:30:50;;;;;;;2.60;2.40;;;;;;;2.21;100.00;99337.38;5096142;28;20395;-65
2024/01/26 10:33:20;;;;;;;2.90;2.60;;;;;;;2.21;100.00;99345.47;5096493;28;20426;-66
2024/01/26 10:35:47;;;;;;;5.05;2.15;;;;;;;2.34;100.00;99341.94;5096176;28;20063;-64
2024/01/26 10:38:14;;;;;;;1.77;1.67;;;;;;;2.19;100.00;99321.41;5096523;28;20106;-64
2024/01/26 10:40:43;;;;;;;1.85;1.75;;;;;;;2.09;100.00;99335.19;5096180;28;20083;-65
2024/01/26 10:43:11;;;;;;;2.60;2.08;;;;;;;1.96;100.00;99327.91;5096520;28;20134;-65
2024/01/26 10:45:38;;;;;;;2.00;1.75;;;;;;;2.08;100.00;99325.47;5096006;28;20044;-64
2024/01/26 10:48:06;;;;;;;2.45;1.90;;;;;;;2.18;100.00;99314.44;5096418;28;20342;-65
2024/01/26 10:50:32;;;;;;;5.78;2.55;;;;;;;2.22;100.00;99299.19;5096005;28;20426;-65
2024/01/26 10:52:59;;;;;;;5.85;2.00;;;;;;;2.25;100.00;99259.91;5096411;28;20138;-65
2024/01/26 10:55:26;;;;;;;2.13;2.03;;;;;;;2.23;100.00;99229.66;5095808;28;20050;-65
2024/01/26 10:57:53;;;;;;;5.13;2.40;;;;;;;2.13;100.00;99200.94;5096102;28;20094;-64
2024/01/26 11:00:20;;;;;;;2.83;2.15;;;;;;;2.20;100.00;99195.09;5096031;28;20052;-66
2024/01/26 11:02:46;;;;;;;3.40;2.00;;;;;;;2.21;100.00;99199.41;5095958;28;20059;-66
2024/01/26 11:05:13;;;;;;;3.63;2.55;;;;;;;1.95;100.00;99178.41;5096131;28;20047;-66
2024/01/26 11:07:39;;;;;;;2.42;2.22;;;;;;;1.96;100.00;99204.31;5095676;28;20088;-65
2024/01/26 11:10:10;;;;;;;3.20;1.88;;;;;;;2.17;100.00;99220.09;5095986;28;20059;-65
2024/01/26 11:12:38;;;;;;;2.70;2.20;;;;;;;2.12;100.00;99193.94;5095703;28;20059;-66
2024/01/26 11:15:09;;;;;;;2.45;2.10;;;;;;;1.96;100.00;99154.84;5096158;28;20361;-65
2024/01/26 11:17:45;;;;;;;3.78;2.50;;;;;;;1.92;100.00;99143.84;5095619;28;20108;-66
2024/01/26 11:20:14;;;;;;;3.08;2.30;;;;;;;1.83;100.00;99143.81;5096015;28;20143;-66
2024/01/26 11:22:41;;;;;;;2.83;2.03;;;;;;;1.61;100.00;99168.91;5095606;28;20431;-66
2024/01/26 11:25:07;;;;;;;2.22;2.03;;;;;;;1.95;100.00;99218.16;5095465;28;20048;-66
2024/01/26 11:27:34;;;;;;;3.28;2.33;;;;;;;1.96;100.00;99208.94;5095569;28;20087;-65
2024/01/26 11:30:00;;;;;;;7.75;2.20;;;;;;;1.95;100.00;99181.09;5095658;28;20135;-65